createdAt,value
2022-12-29T00:01:10.031Z,8.30
2022-12-29T00:03:38.142Z,8.30
2022-12-29T00:06:07.594Z,8.30
2022-12-29T00:08:41.589Z,8.30
2022-12-29T00:11:10.823Z,8.30
2022-12-29T00:13:56.918Z,8.40
2022-12-29T00:16:25.182Z,8.40
2022-12-29T00:18:53.674Z,8.40
2022-12-29T00:21:43.214Z,8.40
2022-12-29T00:24:33.393Z,8.40
2022-12-29T00:27:31.535Z,8.50
2022-12-29T00:30:17.994Z,8.50
2022-12-29T00:33:03.931Z,8.50
2022-12-29T00:35:39.236Z,8.50
2022-12-29T00:38:28.745Z,8.40
2022-12-29T00:41:14.649Z,8.50
2022-12-29T00:44:00.388Z,8.50
2022-12-29T00:46:29.209Z,8.50
2022-12-29T00:49:29.323Z,8.50
2022-12-29T00:51:59.453Z,8.60
2022-12-29T00:54:29.707Z,8.60
2022-12-29T00:56:57.666Z,8.70
2022-12-29T00:59:25.845Z,8.60
2022-12-29T01:01:55.410Z,8.60
2022-12-29T01:04:25.908Z,8.70
2022-12-29T01:06:54.543Z,8.70
2022-12-29T01:09:40.312Z,8.70
2022-12-29T01:12:11.937Z,8.60
2022-12-29T01:14:40.880Z,8.60
2022-12-29T01:17:09.525Z,8.60
2022-12-29T01:19:37.599Z,8.60
2022-12-29T01:22:05.499Z,8.70
2022-12-29T01:24:33.443Z,8.70
2022-12-29T01:27:01.330Z,8.80
2022-12-29T01:29:30.560Z,8.80
2022-12-29T01:31:58.474Z,8.80
2022-12-29T01:34:26.407Z,8.80
2022-12-29T01:36:54.295Z,8.80
2022-12-29T01:39:22.460Z,8.70
2022-12-29T01:41:50.399Z,8.80
2022-12-29T01:44:53.426Z,8.80
2022-12-29T01:47:35.297Z,8.70
2022-12-29T01:50:10.892Z,8.80
2022-12-29T01:52:46.005Z,8.80
2022-12-29T01:55:14.750Z,8.90
2022-12-29T01:57:50.313Z,8.90
2022-12-29T02:00:20.490Z,9.00
2022-12-29T02:02:54.024Z,9.00
2022-12-29T02:05:31.012Z,9.10
2022-12-29T02:07:58.997Z,9.10
2022-12-29T02:10:31.825Z,9.10
2022-12-29T02:12:59.877Z,9.10
2022-12-29T02:15:50.644Z,9.00
2022-12-29T02:18:34.893Z,9.10
2022-12-29T02:21:45.703Z,9.10
2022-12-29T02:25:03.097Z,9.20
2022-12-29T02:27:53.044Z,9.20
2022-12-29T02:30:49.132Z,9.20
2022-12-29T02:33:33.740Z,9.20
2022-12-29T02:36:16.456Z,9.20
2022-12-29T02:39:03.772Z,9.20
2022-12-29T02:41:41.149Z,9.30
2022-12-29T02:44:18.516Z,9.30
2022-12-29T02:46:58.790Z,9.30
2022-12-29T02:49:35.352Z,9.30
2022-12-29T02:52:09.828Z,9.40
2022-12-29T02:54:41.749Z,9.40
2022-12-29T02:57:18.362Z,9.40
2022-12-29T02:59:50.723Z,9.40
2022-12-29T03:02:41.416Z,9.40
2022-12-29T03:05:41.157Z,9.30
2022-12-29T03:08:23.579Z,9.30
2022-12-29T03:11:02.254Z,9.30
2022-12-29T03:13:58.908Z,9.30
2022-12-29T03:16:37.410Z,9.30
2022-12-29T03:19:14.192Z,9.30
2022-12-29T03:22:05.940Z,9.20
2022-12-29T03:24:45.244Z,9.20
2022-12-29T03:27:23.375Z,9.20
2022-12-29T03:29:57.013Z,9.10
2022-12-29T03:32:32.283Z,9.10
2022-12-29T03:35:03.739Z,9.10
2022-12-29T03:37:38.922Z,9.10
2022-12-29T03:40:09.149Z,9.10
2022-12-29T03:42:40.217Z,9.10
2022-12-29T03:45:12.744Z,9.10
2022-12-29T03:47:40.791Z,9.20
2022-12-29T03:50:10.737Z,9.20
2022-12-29T03:52:41.588Z,9.20
2022-12-29T03:55:10.879Z,9.20
2022-12-29T03:57:40.790Z,9.20
2022-12-29T04:00:15.683Z,9.20
2022-12-29T04:02:44.071Z,9.20
2022-12-29T04:05:18.519Z,9.30
2022-12-29T04:07:46.562Z,9.40
2022-12-29T04:10:16.378Z,9.40
2022-12-29T04:12:47.348Z,9.40
2022-12-29T04:15:15.959Z,9.50
2022-12-29T04:17:44.042Z,9.50
2022-12-29T04:20:30.010Z,9.60
2022-12-29T04:23:04.205Z,9.60
2022-12-29T04:25:34.406Z,9.70
2022-12-29T04:28:02.973Z,9.70
2022-12-29T04:30:55.296Z,9.70
2022-12-29T04:33:26.232Z,9.70
2022-12-29T04:35:56.105Z,9.60
2022-12-29T04:38:27.269Z,9.60
2022-12-29T04:40:55.866Z,9.60
2022-12-29T04:43:25.422Z,9.60
2022-12-29T04:46:12.324Z,9.60
2022-12-29T04:48:48.964Z,9.50
2022-12-29T04:51:27.921Z,9.50
2022-12-29T04:53:57.291Z,9.50
2022-12-29T04:56:26.695Z,9.50
2022-12-29T04:58:54.586Z,9.40
2022-12-29T05:01:23.523Z,9.40
2022-12-29T05:03:53.022Z,9.40
2022-12-29T05:06:21.545Z,9.40
2022-12-29T05:08:51.422Z,9.40
2022-12-29T05:11:20.699Z,9.30
2022-12-29T05:13:51.035Z,9.30
2022-12-29T05:16:19.341Z,9.20
2022-12-29T05:18:47.347Z,9.20
2022-12-29T05:21:15.936Z,9.20
2022-12-29T05:23:46.036Z,9.20
2022-12-29T05:26:15.863Z,9.20
2022-12-29T05:29:08.989Z,9.10
2022-12-29T05:31:37.092Z,9.10
2022-12-29T05:34:06.605Z,9.10
2022-12-29T05:36:37.998Z,9.00
2022-12-29T05:39:08.976Z,9.00
2022-12-29T05:41:37.838Z,9.00
2022-12-29T05:44:25.842Z,8.90
2022-12-29T05:47:13.942Z,8.90
2022-12-29T05:49:48.519Z,8.90
2022-12-29T05:52:48.698Z,8.90
2022-12-29T05:55:16.919Z,8.80
2022-12-29T05:57:48.629Z,8.70
2022-12-29T06:00:20.480Z,8.70
2022-12-29T06:02:49.157Z,8.60
2022-12-29T06:05:19.128Z,8.60
2022-12-29T06:07:47.399Z,8.60
2022-12-29T06:10:18.512Z,8.60
2022-12-29T06:12:51.952Z,8.60
2022-12-29T06:15:22.035Z,8.60
2022-12-29T06:17:51.989Z,8.60
2022-12-29T06:20:19.897Z,8.60
2022-12-29T06:22:48.009Z,8.50
2022-12-29T06:25:16.058Z,8.50
2022-12-29T06:27:45.965Z,8.50
2022-12-29T06:30:15.797Z,8.50
2022-12-29T06:32:46.871Z,8.50
2022-12-29T06:35:15.324Z,8.40
2022-12-29T06:37:47.728Z,8.40
2022-12-29T06:40:16.239Z,8.40
2022-12-29T06:43:03.685Z,8.30
2022-12-29T06:45:45.156Z,8.30
2022-12-29T06:48:14.625Z,8.30
2022-12-29T06:50:42.993Z,8.20
2022-12-29T06:53:10.891Z,8.20
2022-12-29T06:55:39.214Z,8.20
2022-12-29T06:58:07.136Z,8.20
2022-12-29T07:00:35.608Z,8.20
2022-12-29T07:03:03.678Z,8.20
2022-12-29T07:05:33.660Z,8.20
2022-12-29T07:08:01.909Z,8.30
2022-12-29T07:10:30.196Z,8.30
2022-12-29T07:12:58.179Z,8.30
2022-12-29T07:15:26.139Z,8.30
2022-12-29T07:17:54.211Z,8.30
2022-12-29T07:20:26.721Z,8.30
2022-12-29T07:22:56.715Z,8.30
2022-12-29T07:25:24.721Z,8.30
2022-12-29T07:27:52.656Z,8.30
2022-12-29T07:30:20.572Z,8.30
2022-12-29T07:32:48.558Z,8.30
2022-12-29T07:35:16.756Z,8.40
2022-12-29T07:37:45.733Z,8.40
2022-12-29T07:40:15.553Z,8.40
2022-12-29T07:42:43.862Z,8.40
2022-12-29T07:45:12.610Z,8.40
2022-12-29T07:48:06.800Z,8.40
2022-12-29T07:50:34.772Z,8.30
2022-12-29T07:53:03.006Z,8.30
2022-12-29T07:55:32.280Z,8.30
2022-12-29T07:58:00.255Z,8.30
2022-12-29T08:00:28.397Z,8.30
2022-12-29T08:02:56.287Z,8.20
2022-12-29T08:05:24.188Z,8.20
2022-12-29T08:07:52.281Z,8.20
2022-12-29T08:10:21.294Z,8.20
2022-12-29T08:12:51.348Z,8.20
2022-12-29T08:15:19.501Z,8.20
2022-12-29T08:17:47.455Z,8.30
2022-12-29T08:20:15.368Z,8.30
2022-12-29T08:22:43.260Z,8.30
2022-12-29T08:25:11.175Z,8.30
2022-12-29T08:27:39.104Z,8.40
2022-12-29T08:30:10.681Z,8.50
2022-12-29T08:32:38.581Z,8.60
2022-12-29T08:35:07.575Z,8.60
2022-12-29T08:37:35.798Z,8.60
2022-12-29T08:40:04.828Z,8.70
2022-12-29T08:42:33.811Z,8.80
2022-12-29T08:45:02.750Z,9.00
2022-12-29T08:47:35.149Z,9.30
2022-12-29T08:50:03.072Z,9.60
2022-12-29T08:52:30.984Z,9.80
2022-12-29T08:54:58.899Z,9.90
2022-12-29T08:57:26.875Z,10.00
2022-12-29T09:00:16.935Z,10.10
2022-12-29T09:02:46.449Z,10.20
2022-12-29T09:05:14.699Z,10.20
2022-12-29T09:07:42.669Z,10.20
2022-12-29T09:10:10.728Z,10.20
2022-12-29T09:12:38.717Z,10.10
2022-12-29T09:15:08.670Z,10.10
2022-12-29T09:17:42.776Z,10.10
2022-12-29T09:20:13.337Z,10.10
2022-12-29T09:22:41.365Z,10.10
2022-12-29T09:25:10.552Z,10.10
2022-12-29T09:27:39.174Z,10.10
2022-12-29T09:30:11.545Z,10.20
2022-12-29T09:32:44.759Z,10.20
2022-12-29T09:35:15.738Z,10.10
2022-12-29T09:37:43.721Z,10.20
2022-12-29T09:40:27.230Z,10.20
2022-12-29T09:43:13.558Z,10.20
2022-12-29T09:45:47.570Z,10.20
2022-12-29T09:48:22.062Z,10.30
2022-12-29T09:50:58.245Z,10.30
2022-12-29T09:53:32.391Z,10.30
2022-12-29T09:56:04.553Z,10.40
2022-12-29T09:58:41.321Z,10.50
2022-12-29T10:01:22.522Z,10.50
2022-12-29T10:03:54.154Z,10.60
2022-12-29T10:06:31.642Z,10.60
2022-12-29T10:09:12.382Z,10.70
2022-12-29T10:12:04.946Z,10.70
2022-12-29T10:14:56.046Z,10.70
2022-12-29T10:17:34.225Z,10.80
2022-12-29T10:20:29.409Z,10.80
2022-12-29T10:23:24.553Z,10.80
2022-12-29T10:25:57.364Z,10.80
2022-12-29T10:28:36.381Z,10.80
2022-12-29T10:31:10.064Z,10.90
2022-12-29T10:33:44.302Z,10.90
2022-12-29T10:36:20.116Z,10.90
2022-12-29T10:39:05.214Z,10.90
2022-12-29T10:41:41.853Z,10.90
2022-12-29T10:44:15.348Z,11.00
2022-12-29T10:46:45.916Z,11.00
2022-12-29T10:49:22.346Z,11.00
2022-12-29T10:51:53.347Z,11.10
2022-12-29T10:54:29.767Z,11.10
2022-12-29T10:57:05.076Z,11.20
2022-12-29T10:59:37.251Z,11.10
2022-12-29T11:02:35.630Z,11.20
2022-12-29T11:05:11.897Z,11.20
2022-12-29T11:07:40.256Z,11.30
2022-12-29T11:10:36.035Z,11.30
2022-12-29T11:13:12.645Z,11.30
2022-12-29T11:15:43.206Z,11.30
2022-12-29T11:18:24.019Z,11.30
2022-12-29T11:20:55.212Z,11.30
2022-12-29T11:23:32.195Z,11.30
2022-12-29T11:26:31.800Z,11.30
2022-12-29T11:29:22.054Z,11.40
2022-12-29T11:31:52.924Z,11.40
2022-12-29T11:34:24.542Z,11.40
2022-12-29T11:36:55.563Z,11.40
2022-12-29T11:39:36.286Z,11.40
2022-12-29T11:42:10.504Z,11.40
2022-12-29T11:44:45.282Z,11.50
2022-12-29T11:47:27.407Z,11.50
2022-12-29T11:50:00.654Z,11.60
2022-12-29T11:52:34.074Z,11.60
2022-12-29T11:55:04.622Z,11.60
2022-12-29T11:57:37.330Z,11.60
2022-12-29T12:00:18.259Z,11.60
2022-12-29T12:02:52.860Z,11.60
2022-12-29T12:05:32.971Z,11.70
2022-12-29T12:08:16.179Z,11.60
2022-12-29T12:10:55.342Z,11.60
2022-12-29T12:13:33.843Z,11.70
2022-12-29T12:16:10.245Z,11.80
2022-12-29T12:18:49.459Z,11.80
2022-12-29T12:21:27.364Z,11.90
2022-12-29T12:24:28.787Z,11.80
2022-12-29T12:27:04.305Z,12.00
2022-12-29T12:29:43.212Z,12.00
2022-12-29T12:32:19.175Z,12.30
2022-12-29T12:34:49.958Z,12.30
2022-12-29T12:38:07.429Z,12.30
2022-12-29T12:40:52.517Z,12.20
2022-12-29T12:43:43.762Z,12.10
2022-12-29T12:47:05.725Z,12.00
2022-12-29T12:50:08.566Z,12.30
2022-12-29T12:53:00.751Z,12.40
2022-12-29T12:55:46.817Z,12.60
2022-12-29T12:58:30.292Z,12.30
2022-12-29T13:01:26.791Z,12.20
2022-12-29T13:04:23.815Z,12.10
2022-12-29T13:07:06.164Z,12.00
2022-12-29T13:09:54.519Z,11.90
2022-12-29T13:12:38.088Z,11.90
2022-12-29T13:15:21.140Z,11.90
2022-12-29T13:18:00.197Z,11.80
2022-12-29T13:20:41.229Z,11.80
2022-12-29T13:23:21.020Z,11.80
2022-12-29T13:25:58.044Z,12.00
2022-12-29T13:28:36.269Z,11.90
2022-12-29T13:31:14.437Z,11.80
2022-12-29T13:33:56.353Z,11.70
2022-12-29T13:36:31.239Z,11.70
2022-12-29T13:39:14.792Z,11.70
2022-12-29T13:41:52.200Z,11.70
2022-12-29T13:44:28.780Z,11.70
2022-12-29T13:47:06.731Z,11.60
2022-12-29T13:49:36.094Z,11.60
2022-12-29T13:52:17.735Z,11.60
2022-12-29T13:54:59.310Z,11.50
2022-12-29T13:57:44.717Z,11.40
2022-12-29T14:00:18.341Z,11.30
2022-12-29T14:03:14.896Z,11.30
2022-12-29T14:05:47.416Z,11.20
2022-12-29T14:08:20.380Z,11.20
2022-12-29T14:10:51.125Z,11.20
2022-12-29T14:13:22.970Z,11.20
2022-12-29T14:15:58.792Z,11.20
2022-12-29T14:18:29.536Z,11.10
2022-12-29T14:21:01.152Z,11.10
2022-12-29T14:23:40.725Z,11.10
2022-12-29T14:26:16.979Z,11.10
2022-12-29T14:28:47.287Z,11.00
2022-12-29T14:31:41.987Z,11.00
2022-12-29T14:34:38.986Z,10.90
2022-12-29T14:37:25.729Z,10.90
2022-12-29T14:40:08.768Z,10.80
2022-12-29T14:42:36.992Z,10.80
2022-12-29T14:45:11.041Z,10.70
2022-12-29T14:47:42.495Z,10.70
2022-12-29T14:50:18.612Z,10.60
2022-12-29T14:52:54.030Z,10.50
2022-12-29T14:55:40.765Z,10.50
2022-12-29T14:58:18.153Z,10.50
2022-12-29T15:00:48.285Z,10.40
2022-12-29T15:03:22.626Z,10.40
2022-12-29T15:05:54.416Z,10.40
2022-12-29T15:08:26.644Z,10.30
2022-12-29T15:11:02.607Z,10.30
2022-12-29T15:13:38.315Z,10.30
2022-12-29T15:16:22.267Z,10.20
2022-12-29T15:18:50.383Z,10.20
2022-12-29T15:21:19.370Z,10.20
2022-12-29T15:23:48.912Z,10.20
2022-12-29T15:26:23.238Z,10.20
2022-12-29T15:28:55.526Z,10.20
2022-12-29T15:31:30.656Z,10.30
2022-12-29T15:34:12.640Z,10.30
2022-12-29T15:36:42.685Z,10.30
2022-12-29T15:39:20.779Z,10.20
2022-12-29T15:42:05.131Z,10.30
2022-12-29T15:44:39.339Z,10.30
2022-12-29T15:47:16.325Z,10.30
2022-12-29T15:49:45.578Z,10.30
2022-12-29T15:52:20.174Z,10.30
2022-12-29T15:54:51.123Z,10.30
2022-12-29T15:57:26.127Z,10.30
2022-12-29T15:59:54.962Z,10.20
2022-12-29T16:02:25.195Z,10.30
2022-12-29T16:05:17.690Z,10.20
2022-12-29T16:07:55.624Z,10.20
2022-12-29T16:10:34.390Z,10.20
2022-12-29T16:13:40.034Z,10.20
2022-12-29T16:16:16.057Z,10.10
2022-12-29T16:18:46.959Z,10.20
2022-12-29T16:21:23.494Z,10.10
2022-12-29T16:23:56.024Z,10.10
2022-12-29T16:26:25.655Z,10.10
2022-12-29T16:28:59.682Z,10.10
2022-12-29T16:31:36.833Z,10.10
2022-12-29T16:34:27.092Z,10.00
2022-12-29T16:36:58.038Z,10.00
2022-12-29T16:39:37.632Z,10.00
2022-12-29T16:42:36.904Z,10.00
2022-12-29T16:46:09.088Z,10.00
2022-12-29T16:48:49.660Z,10.00
2022-12-29T16:51:23.164Z,10.00
2022-12-29T16:53:55.427Z,10.00
2022-12-29T16:56:27.991Z,10.00
2022-12-29T16:59:05.371Z,10.00
2022-12-29T17:01:38.705Z,10.00
2022-12-29T17:04:11.900Z,10.10
2022-12-29T17:06:40.718Z,10.10
2022-12-29T17:09:20.380Z,10.10
2022-12-29T17:12:02.944Z,10.10
2022-12-29T17:14:45.430Z,10.00
2022-12-29T17:17:22.858Z,10.00
2022-12-29T17:19:53.987Z,9.90
2022-12-29T17:22:28.948Z,9.90
2022-12-29T17:24:59.156Z,9.90
2022-12-29T17:27:33.802Z,9.90
2022-12-29T17:30:07.001Z,9.90
2022-12-29T17:32:36.302Z,9.90
2022-12-29T17:35:04.551Z,9.90
2022-12-29T17:37:38.324Z,9.90
2022-12-29T17:40:09.862Z,9.90
2022-12-29T17:42:44.721Z,9.90
2022-12-29T17:45:17.705Z,9.90
2022-12-29T17:47:47.657Z,9.90
2022-12-29T17:50:17.932Z,9.90
2022-12-29T17:52:50.961Z,9.90
2022-12-29T17:55:22.697Z,9.90
2022-12-29T17:57:51.138Z,9.90
2022-12-29T18:00:22.573Z,9.90
2022-12-29T18:02:52.153Z,9.90
2022-12-29T18:05:23.701Z,9.90
2022-12-29T18:07:54.536Z,9.80
2022-12-29T18:10:24.395Z,9.80
2022-12-29T18:12:54.686Z,9.90
2022-12-29T18:15:26.455Z,9.80
2022-12-29T18:18:00.775Z,9.70
2022-12-29T18:20:30.335Z,9.70
2022-12-29T18:22:58.998Z,9.70
2022-12-29T18:25:37.750Z,9.60
2022-12-29T18:28:06.091Z,9.60
2022-12-29T18:30:34.092Z,9.60
2022-12-29T18:33:03.404Z,9.60
2022-12-29T18:35:39.370Z,9.60
2022-12-29T18:38:07.572Z,9.50
2022-12-29T18:40:36.816Z,9.50
2022-12-29T18:43:05.245Z,9.50
2022-12-29T18:45:34.802Z,9.50
2022-12-29T18:48:04.391Z,9.40
2022-12-29T18:50:32.565Z,9.40
2022-12-29T18:53:03.935Z,9.40
2022-12-29T18:55:32.471Z,9.40
2022-12-29T18:58:00.571Z,9.40
2022-12-29T19:00:28.535Z,9.30
2022-12-29T19:02:56.484Z,9.30
2022-12-29T19:05:28.899Z,9.30
2022-12-29T19:07:57.481Z,9.20
2022-12-29T19:10:26.633Z,9.10
2022-12-29T19:12:55.039Z,9.10
2022-12-29T19:15:26.941Z,9.10
2022-12-29T19:18:41.238Z,9.00
2022-12-29T19:20:48.974Z,9.00
2022-12-29T19:23:19.696Z,9.00
2022-12-29T19:25:48.948Z,8.90
2022-12-29T19:28:20.463Z,8.90
2022-12-29T19:30:52.561Z,8.90
2022-12-29T19:33:22.274Z,8.90
2022-12-29T19:35:53.409Z,8.90
2022-12-29T19:38:21.660Z,8.90
2022-12-29T19:40:52.388Z,8.90
2022-12-29T19:43:20.657Z,9.00
2022-12-29T19:45:48.778Z,8.90
2022-12-29T19:48:20.959Z,8.90
2022-12-29T19:50:49.261Z,8.90
2022-12-29T19:53:18.535Z,8.90
2022-12-29T19:55:48.396Z,8.90
2022-12-29T19:58:16.795Z,8.80
2022-12-29T20:00:45.309Z,8.90
2022-12-29T20:03:13.551Z,8.80
2022-12-29T20:05:41.723Z,8.80
2022-12-29T20:08:09.717Z,8.80
2022-12-29T20:10:38.933Z,8.70
2022-12-29T20:13:07.579Z,8.80
2022-12-29T20:15:35.472Z,8.70
2022-12-29T20:18:21.304Z,8.80
2022-12-29T20:20:51.506Z,8.70
2022-12-29T20:23:19.760Z,8.70
2022-12-29T20:25:56.404Z,8.80
2022-12-29T20:28:25.180Z,8.80
2022-12-29T20:31:02.001Z,8.70
2022-12-29T20:33:32.262Z,8.70
2022-12-29T20:36:10.466Z,8.70
2022-12-29T20:38:39.692Z,8.70
2022-12-29T20:41:09.728Z,8.70
2022-12-29T20:43:37.770Z,8.70
2022-12-29T20:46:06.195Z,8.70
2022-12-29T20:48:34.939Z,8.80
2022-12-29T20:51:03.000Z,8.70
2022-12-29T20:53:34.080Z,8.70
2022-12-29T20:56:06.573Z,8.70
2022-12-29T20:58:52.538Z,8.70
2022-12-29T21:01:26.730Z,8.70
2022-12-29T21:03:55.134Z,8.70
2022-12-29T21:06:23.091Z,8.70
2022-12-29T21:08:53.428Z,8.70
2022-12-29T21:11:22.205Z,8.70
2022-12-29T21:13:51.491Z,8.70
2022-12-29T21:16:21.163Z,8.70
2022-12-29T21:18:50.071Z,8.70
2022-12-29T21:21:22.443Z,8.70
2022-12-29T21:23:51.131Z,8.70
2022-12-29T21:26:22.695Z,8.70
2022-12-29T21:28:52.716Z,8.70
2022-12-29T21:31:28.300Z,8.70
2022-12-29T21:33:57.824Z,8.70
2022-12-29T21:36:26.574Z,8.70
2022-12-29T21:38:55.500Z,8.60
2022-12-29T21:41:24.279Z,8.60
2022-12-29T21:44:11.796Z,8.70
2022-12-29T21:46:43.911Z,8.60
2022-12-29T21:49:11.863Z,8.60
2022-12-29T21:51:50.903Z,8.70
2022-12-29T21:54:38.080Z,8.70
2022-12-29T21:57:06.702Z,8.70
2022-12-29T21:59:53.624Z,8.60
2022-12-29T22:02:42.009Z,8.70
2022-12-29T22:05:31.903Z,8.60
2022-12-29T22:08:17.992Z,8.60
2022-12-29T22:11:06.505Z,8.60
2022-12-29T22:13:37.156Z,8.70
2022-12-29T22:16:08.853Z,8.60
2022-12-29T22:18:37.182Z,8.60
2022-12-29T22:21:06.153Z,8.70
2022-12-29T22:23:34.445Z,8.70
2022-12-29T22:26:05.679Z,8.70
2022-12-29T22:28:37.854Z,8.70
2022-12-29T22:31:19.805Z,8.60
2022-12-29T22:33:48.172Z,8.60
2022-12-29T22:36:16.091Z,8.60
2022-12-29T22:38:44.048Z,8.70
2022-12-29T22:41:11.971Z,8.70
2022-12-29T22:43:39.905Z,8.60
2022-12-29T22:46:09.457Z,8.70
2022-12-29T22:48:38.356Z,8.60
2022-12-29T22:51:07.231Z,8.60
2022-12-29T22:53:35.194Z,8.60
2022-12-29T22:56:05.995Z,8.60
2022-12-29T22:58:34.115Z,8.60
2022-12-29T23:01:05.298Z,8.60
2022-12-29T23:03:34.948Z,8.60
2022-12-29T23:06:06.138Z,8.70
2022-12-29T23:08:38.294Z,8.70
2022-12-29T23:11:09.386Z,8.70
2022-12-29T23:13:37.913Z,8.60
2022-12-29T23:16:06.500Z,8.60
2022-12-29T23:18:35.809Z,8.60
2022-12-29T23:21:04.107Z,8.70
2022-12-29T23:23:50.087Z,8.60
2022-12-29T23:26:18.712Z,8.60
2022-12-29T23:28:47.262Z,8.60
2022-12-29T23:31:15.657Z,8.60
2022-12-29T23:33:45.198Z,8.60
2022-12-29T23:36:13.793Z,8.60
2022-12-29T23:38:42.155Z,8.60
2022-12-29T23:41:11.012Z,8.60
2022-12-29T23:43:40.098Z,8.60
2022-12-29T23:46:09.717Z,8.50
2022-12-29T23:48:38.187Z,8.50
2022-12-29T23:51:08.859Z,8.50
2022-12-29T23:53:40.244Z,8.50
2022-12-29T23:56:12.246Z,8.50
2022-12-29T23:58:40.229Z,8.50
